Terminal Aerodrome Forecast
Issued by NWS

Home | Current Version | Previous Version | Text Only | Print | Product List | Glossary On
Versions: 1 2 3 4 5 6 7 8 9 10 11 12 13 14 15
423
FTUS46 KLOX 190552
TAFWJF
TAF
KWJF 190552Z 1906/2006 23015G25KT P6SM -SHRA SCT025 OVC050
     FM191200 23020G30KT 4SM RA BR BKN015 OVC025
     FM191800 24020G30KT P6SM -SHRA BKN035 BKN060
     FM192100 25015G23KT P6SM VCSH SCT025 BKN050
     FM200200 25012KT P6SM SCT025 BKN050=

USA.gov is the U.S. government's official web portal to all federal, state and local government web resources and services.